Debi Sharp — WDE8185 — position and weather

sailwx.info

Track history (hours):
 
Tides and Currents Weather Stations Pressure Air Temp Water Temp Dewpoint Dewpoint Depression Visibility Wind Speed Wind Dir Waves Ship Positions

Debi Sharp

Owner: Crounse Corporation, Maysville, KY. More information available from US FCC via Universal Licensing System and Coast Guard Vessel Documentation Center.

Last reported at 2015-Apr-21 15:28 UTC. Time now 2015-May-04 23:08 UTC.
Position N 39°09' W 084°45'.
Warning: this ship's position is 13 days out of date.

Length 41 m.

Type: Towing. MMSI: 367402530.

Date/timePositionNaut miles runAvg speedWind from/ knotsBaromVisibWave heightAir tempDewpointWater temp
2015-Apr-21 15:28N 39°09' W 084°45'8 8.8
2015-Apr-21 14:33N 39°04' W 084°36'4 3.7
2015-Apr-21 13:33N 39°06' W 084°32'4 4.1
2015-Apr-21 12:33N 39°07' W 084°27'8 8.3
2015-Apr-21 11:33N 39°01' W 084°19'9 9.2
2015-Apr-21 10:33N 38°53' W 084°14'0 0.2
2015-Apr-21 09:33N 38°53' W 084°14'5 5.0
2015-Apr-21 08:33N 38°48' W 084°11'2 1.9
2015-Apr-21 07:33N 38°48' W 084°09'  
2015-Apr-13 13:31N 38°41' W 083°47'4 2.2
2015-Apr-13 11:33N 38°44' W 083°51'3 2.5
2015-Apr-13 10:32N 38°46' W 083°54'8 2.6
2015-Apr-13 07:16N 38°46' W 084°04'3 3.5
2015-Apr-13 06:31N 38°47' W 084°08'2 2.5
2015-Apr-13 05:33N 38°48' W 084°10'2 1.9
2015-Apr-13 04:32N 38°48' W 084°13'3 2.5
2015-Apr-13 03:32N 38°51' W 084°14'3 2.8
2015-Apr-13 02:33N 38°53' W 084°14'3 3.0
2015-Apr-13 01:32N 38°56' W 084°16'3 3.1
2015-Apr-13 00:33N 38°58' W 084°18'3 3.0
2015-Apr-12 23:33N 39°01' W 084°19'3 3.0
2015-Apr-12 22:33N 39°03' W 084°23'3 2.5
2015-Apr-12 21:32N 39°04' W 084°26'2 2.4
2015-Apr-12 20:33N 39°06' W 084°26'2 2.0
2015-Apr-12 19:33N 39°07' W 084°28'2 2.1
2015-Apr-12 18:33N 39°06' W 084°30'2 2.2
2015-Apr-12 17:32N 39°06' W 084°33'1 1.1
2015-Apr-12 16:33N 39°05' W 084°34'1 1.0
2015-Apr-12 15:32N 39°05' W 084°35'0 0.0
2015-Apr-12 14:33N 39°05' W 084°35'0 0.0
2015-Apr-12 13:32N 39°05' W 084°35'0 0.2
2015-Apr-12 12:32N 39°05' W 084°36'2 1.9
2015-Apr-12 11:32N 39°05' W 084°38'2 2.2
2015-Apr-12 10:33N 39°06' W 084°40'2 2.0
2015-Apr-12 09:33N 39°07' W 084°42'2 2.4
2015-Apr-12 08:33N 39°09' W 084°45'2 2.1
2015-Apr-12 07:30N 39°07' W 084°47'2 1.9
2015-Apr-12 06:33N 39°09' W 084°45'8 8.2
2015-Apr-12 05:33N 39°04' W 084°36'1 1.1
2015-Apr-12 04:32N 39°05' W 084°35'4 3.9
2015-Apr-12 03:33N 39°06' W 084°30'6 5.5
2015-Apr-12 02:33N 39°03' W 084°24'7 6.6
2015-Apr-12 01:33N 38°58' W 084°18'6 5.7
2015-Apr-12 00:25N 38°53' W 084°14'0 0.0
2015-Apr-11 23:27N 38°53' W 084°14'0 0.0
2015-Apr-11 22:22N 38°53' W 084°14'0 0.0
2015-Apr-11 21:32N 38°53' W 084°14'0 0.0
2015-Apr-11 20:32N 38°53' W 084°14'0 0.2
2015-Apr-11 19:30N 38°52' W 084°14'1 0.5
2015-Apr-11 18:33N 38°53' W 084°14'0 0.2
2015-Apr-11 17:32N 38°53' W 084°14'0 0.1
2015-Apr-11 16:32N 38°53' W 084°14'  
Track history (hours):
 
Tides and Currents Weather Stations Pressure Air Temp Water Temp Dewpoint Dewpoint Depression Visibility Wind Speed Wind Dir Waves Ship Positions

Debi Sharp

Owner: Crounse Corporation, Maysville, KY. More information available from US FCC via Universal Licensing System and Coast Guard Vessel Documentation Center.

Last reported at 2015-Apr-21 15:28 UTC. Time now 2015-May-04 23:08 UTC.
Position N 39°09' W 084°45'.
Warning: this ship's position is 13 days out of date.

Length 41 m.

Type: Towing. MMSI: 367402530.

Date/timePositionNaut miles runAvg speedWind from/ knotsBaromVisibWave heightAir tempDewpointWater temp
2015-Apr-21 15:28N 39°09' W 084°45'8 8.8
2015-Apr-21 14:33N 39°04' W 084°36'4 3.7
2015-Apr-21 13:33N 39°06' W 084°32'4 4.1
2015-Apr-21 12:33N 39°07' W 084°27'8 8.3
2015-Apr-21 11:33N 39°01' W 084°19'9 9.2
2015-Apr-21 10:33N 38°53' W 084°14'0 0.2
2015-Apr-21 09:33N 38°53' W 084°14'5 5.0
2015-Apr-21 08:33N 38°48' W 084°11'2 1.9
2015-Apr-21 07:33N 38°48' W 084°09'  
2015-Apr-13 13:31N 38°41' W 083°47'4 2.2
2015-Apr-13 11:33N 38°44' W 083°51'3 2.5
2015-Apr-13 10:32N 38°46' W 083°54'8 2.6
2015-Apr-13 07:16N 38°46' W 084°04'3 3.5
2015-Apr-13 06:31N 38°47' W 084°08'2 2.5
2015-Apr-13 05:33N 38°48' W 084°10'2 1.9
2015-Apr-13 04:32N 38°48' W 084°13'3 2.5
2015-Apr-13 03:32N 38°51' W 084°14'3 2.8
2015-Apr-13 02:33N 38°53' W 084°14'3 3.0
2015-Apr-13 01:32N 38°56' W 084°16'3 3.1
2015-Apr-13 00:33N 38°58' W 084°18'3 3.0
2015-Apr-12 23:33N 39°01' W 084°19'3 3.0
2015-Apr-12 22:33N 39°03' W 084°23'3 2.5
2015-Apr-12 21:32N 39°04' W 084°26'2 2.4
2015-Apr-12 20:33N 39°06' W 084°26'2 2.0
2015-Apr-12 19:33N 39°07' W 084°28'2 2.1
2015-Apr-12 18:33N 39°06' W 084°30'2 2.2
2015-Apr-12 17:32N 39°06' W 084°33'1 1.1
2015-Apr-12 16:33N 39°05' W 084°34'1 1.0
2015-Apr-12 15:32N 39°05' W 084°35'0 0.0
2015-Apr-12 14:33N 39°05' W 084°35'0 0.0
2015-Apr-12 13:32N 39°05' W 084°35'0 0.2
2015-Apr-12 12:32N 39°05' W 084°36'2 1.9
2015-Apr-12 11:32N 39°05' W 084°38'2 2.2
2015-Apr-12 10:33N 39°06' W 084°40'2 2.0
2015-Apr-12 09:33N 39°07' W 084°42'2 2.4
2015-Apr-12 08:33N 39°09' W 084°45'2 2.1
2015-Apr-12 07:30N 39°07' W 084°47'2 1.9
2015-Apr-12 06:33N 39°09' W 084°45'8 8.2
2015-Apr-12 05:33N 39°04' W 084°36'1 1.1
2015-Apr-12 04:32N 39°05' W 084°35'4 3.9
2015-Apr-12 03:33N 39°06' W 084°30'6 5.5
2015-Apr-12 02:33N 39°03' W 084°24'7 6.6
2015-Apr-12 01:33N 38°58' W 084°18'6 5.7
2015-Apr-12 00:25N 38°53' W 084°14'0 0.0
2015-Apr-11 23:27N 38°53' W 084°14'0 0.0
2015-Apr-11 22:22N 38°53' W 084°14'0 0.0
2015-Apr-11 21:32N 38°53' W 084°14'0 0.0
2015-Apr-11 20:32N 38°53' W 084°14'0 0.2
2015-Apr-11 19:30N 38°52' W 084°14'1 0.5
2015-Apr-11 18:33N 38°53' W 084°14'0 0.2
2015-Apr-11 17:32N 38°53' W 084°14'0 0.1
2015-Apr-11 16:32N 38°53' W 084°14'  

Dump ship's entire track history